N4JP KLAX-KLAS
Flight info
| Callsign | N4JP |
|---|---|
| Flight time | N/A |
| Altitude | 29000 |
| Route | ORCKA5 MISEN RNDRZ4 |
| Aircraft | C25C/M-SDE2E3FGHRWXY/LB1 |
Departure
| Time | 2026-04-20 02:25 |
|---|---|
| Airport | Los Angeles International Airport (KLAX) |
Arrival
| Time | N/A |
|---|---|
| Airport | Harry Reid International Airport (KLAS) |
| Time | Latitude | Longitude | Altitude | Speed | Heading |
|---|---|---|---|---|---|
| 2026-04-20 01:50 | 33.93388 | -118.39537 | 119 ft | 0 kts | 270° |
| 2026-04-20 02:01 | 33.93389 | -118.39539 | 119 ft | 1 kts | 275° |
| 2026-04-20 02:01 | 33.93393 | -118.39545 | 117 ft | 1 kts | 334° |
| 2026-04-20 02:02 | 33.93401 | -118.39540 | 119 ft | 2 kts | 44° |
| 2026-04-20 02:02 | 33.93410 | -118.39523 | 118 ft | 3 kts | 58° |
| 2026-04-20 02:02 | 33.93422 | -118.39495 | 117 ft | 4 kts | 72° |
| 2026-04-20 02:02 | 33.93429 | -118.39464 | 119 ft | 0 kts | 81° |
| 2026-04-20 02:05 | 33.93429 | -118.39462 | 119 ft | 2 kts | 81° |
| 2026-04-20 02:05 | 33.93437 | -118.39434 | 118 ft | 3 kts | 71° |
| 2026-04-20 02:05 | 33.93438 | -118.39431 | 117 ft | 0 kts | 71° |
| 2026-04-20 02:20 | 33.93460 | -118.39389 | 119 ft | 12 kts | 18° |
| 2026-04-20 02:20 | 33.93511 | -118.39310 | 118 ft | 14 kts | 84° |
| 2026-04-20 02:20 | 33.93521 | -118.39178 | 119 ft | 17 kts | 84° |
| 2026-04-20 02:20 | 33.93537 | -118.39022 | 118 ft | 19 kts | 84° |
| 2026-04-20 02:21 | 33.93568 | -118.38700 | 119 ft | 19 kts | 83° |
| 2026-04-20 02:21 | 33.93585 | -118.38538 | 119 ft | 20 kts | 83° |
| 2026-04-20 02:21 | 33.93603 | -118.38376 | 119 ft | 19 kts | 85° |
| 2026-04-20 02:22 | 33.93634 | -118.38285 | 119 ft | 7 kts | 28° |
| 2026-04-20 02:22 | 33.93646 | -118.38279 | 116 ft | 0 kts | 11° |
| 2026-04-20 02:22 | 33.93648 | -118.38279 | 117 ft | 2 kts | 11° |
| 2026-04-20 02:23 | 33.93695 | -118.38279 | 119 ft | 11 kts | 354° |
| 2026-04-20 02:23 | 33.93734 | -118.38314 | 119 ft | 1 kts | 264° |
| 2026-04-20 02:25 | 33.93733 | -118.38331 | 119 ft | 15 kts | 263° |
| 2026-04-20 02:25 | 33.93678 | -118.38855 | 119 ft | 116 kts | 262° |
| 2026-04-20 02:25 | 33.93544 | -118.40170 | 391 ft | 196 kts | 263° |
| 2026-04-20 02:25 | 33.93360 | -118.42003 | 1041 ft | 230 kts | 262° |
| 2026-04-20 02:26 | 33.93137 | -118.43951 | 1603 ft | 242 kts | 261° |
| 2026-04-20 02:26 | 33.92886 | -118.45992 | 2159 ft | 247 kts | 261° |
| 2026-04-20 02:26 | 33.92660 | -118.48033 | 2691 ft | 250 kts | 261° |
| 2026-04-20 02:26 | 33.92296 | -118.50108 | 3207 ft | 259 kts | 244° |
| 2026-04-20 02:27 | 33.91386 | -118.52015 | 3727 ft | 267 kts | 238° |
| 2026-04-20 02:27 | 33.90616 | -118.54019 | 4312 ft | 270 kts | 246° |
| 2026-04-20 02:27 | 33.89940 | -118.56126 | 5419 ft | 268 kts | 247° |
| 2026-04-20 02:27 | 33.89190 | -118.58208 | 5887 ft | 277 kts | 234° |
| 2026-04-20 02:28 | 33.87637 | -118.59463 | 6685 ft | 261 kts | 190° |
| 2026-04-20 02:28 | 33.85978 | -118.59186 | 8208 ft | 243 kts | 155° |
| 2026-04-20 02:28 | 33.84742 | -118.57781 | 9261 ft | 255 kts | 120° |
| 2026-04-20 02:28 | 33.84449 | -118.55657 | 10285 ft | 268 kts | 85° |
| 2026-04-20 02:29 | 33.85244 | -118.53595 | 11246 ft | 280 kts | 54° |
| 2026-04-20 02:29 | 33.86553 | -118.51823 | 12179 ft | 286 kts | 50° |
| 2026-04-20 02:29 | 33.87953 | -118.50086 | 13124 ft | 291 kts | 47° |
| 2026-04-20 02:29 | 33.89394 | -118.48336 | 14015 ft | 297 kts | 48° |
| 2026-04-20 02:30 | 33.90850 | -118.46522 | 14788 ft | 305 kts | 48° |
| 2026-04-20 02:30 | 33.91848 | -118.45261 | 14900 ft | 326 kts | 49° |
| 2026-04-20 02:30 | 33.93386 | -118.43147 | 14948 ft | 333 kts | 57° |
| 2026-04-20 02:30 | 33.94647 | -118.40884 | 14969 ft | 321 kts | 58° |
| 2026-04-20 02:31 | 33.95915 | -118.38657 | 14996 ft | 321 kts | 58° |
| 2026-04-20 02:31 | 33.97175 | -118.36440 | 15119 ft | 318 kts | 58° |
| 2026-04-20 02:31 | 33.98425 | -118.34234 | 15601 ft | 319 kts | 58° |
| 2026-04-20 02:31 | 33.99674 | -118.32028 | 16540 ft | 320 kts | 57° |
| 2026-04-20 02:32 | 34.00938 | -118.29791 | 17325 ft | 325 kts | 57° |
| 2026-04-20 02:32 | 34.02225 | -118.27529 | 18140 ft | 329 kts | 57° |
| 2026-04-20 02:32 | 34.03524 | -118.25235 | 18866 ft | 333 kts | 57° |
| 2026-04-20 02:32 | 34.04840 | -118.22919 | 19613 ft | 336 kts | 57° |
| 2026-04-20 02:33 | 34.06165 | -118.20576 | 20356 ft | 339 kts | 56° |
| 2026-04-20 02:33 | 34.07504 | -118.18210 | 21104 ft | 343 kts | 56° |
| 2026-04-20 02:33 | 34.08856 | -118.15822 | 21860 ft | 347 kts | 56° |
| 2026-04-20 02:33 | 34.10221 | -118.13403 | 22595 ft | 351 kts | 56° |
| 2026-04-20 02:34 | 34.11607 | -118.10955 | 23332 ft | 355 kts | 55° |
| 2026-04-20 02:34 | 34.13006 | -118.08472 | 23987 ft | 359 kts | 55° |
| 2026-04-20 02:34 | 34.14417 | -118.05971 | 24632 ft | 362 kts | 55° |
| 2026-04-20 02:34 | 34.15842 | -118.03443 | 25297 ft | 365 kts | 54° |
| 2026-04-20 02:35 | 34.17276 | -118.00894 | 25949 ft | 368 kts | 54° |
| 2026-04-20 02:35 | 34.18721 | -117.98329 | 26577 ft | 371 kts | 54° |
| 2026-04-20 02:35 | 34.20175 | -117.95741 | 27191 ft | 374 kts | 54° |
| 2026-04-20 02:35 | 34.21621 | -117.93170 | 27764 ft | 377 kts | 53° |
| 2026-04-20 02:36 | 34.23104 | -117.90525 | 28353 ft | 381 kts | 53° |
| 2026-04-20 02:36 | 34.24591 | -117.87880 | 28914 ft | 385 kts | 53° |
| 2026-04-20 02:36 | 34.26127 | -117.85145 | 28959 ft | 401 kts | 53° |
| 2026-04-20 02:36 | 34.27721 | -117.82297 | 28968 ft | 416 kts | 53° |
| 2026-04-20 02:37 | 34.29371 | -117.79348 | 28961 ft | 429 kts | 53° |
| 2026-04-20 02:37 | 34.31060 | -117.76326 | 28959 ft | 440 kts | 54° |
| 2026-04-20 02:37 | 34.32794 | -117.73225 | 28957 ft | 449 kts | 54° |
| 2026-04-20 02:38 | 34.36406 | -117.66914 | 28948 ft | 462 kts | 52° |
| 2026-04-20 02:38 | 34.40220 | -117.60550 | 28958 ft | 471 kts | 52° |
| 2026-04-20 02:39 | 34.44081 | -117.54060 | 28974 ft | 478 kts | 52° |
| 2026-04-20 02:39 | 34.47991 | -117.47504 | 28994 ft | 482 kts | 52° |
| 2026-04-20 02:39 | 34.49927 | -117.44243 | 29001 ft | 463 kts | 52° |
| 2026-04-20 02:40 | 34.51755 | -117.41158 | 29001 ft | 442 kts | 52° |
| 2026-04-20 02:40 | 34.55306 | -117.35186 | 28987 ft | 432 kts | 52° |
| 2026-04-20 02:41 | 34.58781 | -117.29316 | 28989 ft | 425 kts | 52° |
| 2026-04-20 02:41 | 34.62172 | -117.23582 | 28978 ft | 414 kts | 53° |
| 2026-04-20 02:42 | 34.65474 | -117.17989 | 28958 ft | 406 kts | 52° |
| 2026-04-20 02:42 | 34.68769 | -117.12399 | 28932 ft | 408 kts | 53° |
| 2026-04-20 02:43 | 34.72079 | -117.06776 | 28885 ft | 410 kts | 53° |
| 2026-04-20 02:43 | 34.75401 | -117.01122 | 28888 ft | 412 kts | 53° |
| 2026-04-20 02:44 | 34.78734 | -116.95444 | 28896 ft | 413 kts | 53° |
| 2026-04-20 02:44 | 34.82068 | -116.89753 | 28903 ft | 413 kts | 53° |
| 2026-04-20 02:45 | 34.85397 | -116.84060 | 28904 ft | 413 kts | 53° |
| 2026-04-20 02:45 | 34.88723 | -116.78362 | 28902 ft | 413 kts | 53° |
| 2026-04-20 02:46 | 34.92048 | -116.72656 | 28905 ft | 413 kts | 54° |
| 2026-04-20 02:46 | 34.95307 | -116.66899 | 28900 ft | 413 kts | 55° |
| 2026-04-20 02:47 | 34.98561 | -116.61127 | 28892 ft | 413 kts | 54° |
| 2026-04-20 02:47 | 35.01822 | -116.55356 | 28883 ft | 413 kts | 55° |
| 2026-04-20 02:48 | 35.05077 | -116.49570 | 28883 ft | 413 kts | 55° |
| 2026-04-20 02:48 | 35.08332 | -116.43782 | 28885 ft | 414 kts | 56° |
| 2026-04-20 02:49 | 35.11885 | -116.38267 | 28881 ft | 414 kts | 46° |
| 2026-04-20 02:49 | 35.13871 | -116.35705 | 28742 ft | 417 kts | 47° |
| 2026-04-20 02:49 | 35.15859 | -116.33119 | 28219 ft | 414 kts | 47° |
| 2026-04-20 02:49 | 35.17820 | -116.30580 | 27673 ft | 407 kts | 46° |
| 2026-04-20 02:50 | 35.19751 | -116.28093 | 27141 ft | 401 kts | 46° |
| 2026-04-20 02:50 | 35.21650 | -116.25633 | 26615 ft | 395 kts | 47° |
| 2026-04-20 02:50 | 35.23470 | -116.23139 | 26097 ft | 391 kts | 51° |
| 2026-04-20 02:50 | 35.25260 | -116.20657 | 25578 ft | 387 kts | 47° |
| 2026-04-20 02:51 | 35.27102 | -116.18262 | 25073 ft | 384 kts | 47° |
| 2026-04-20 02:51 | 35.28868 | -116.15867 | 24571 ft | 382 kts | 49° |
| 2026-04-20 02:51 | 35.30611 | -116.13429 | 24078 ft | 380 kts | 49° |
| 2026-04-20 02:51 | 35.32357 | -116.11020 | 23583 ft | 377 kts | 48° |
| 2026-04-20 02:52 | 35.34106 | -116.08630 | 23046 ft | 375 kts | 48° |
| 2026-04-20 02:52 | 35.35837 | -116.06267 | 22553 ft | 371 kts | 49° |
| 2026-04-20 02:52 | 35.37540 | -116.03916 | 22068 ft | 367 kts | 49° |
| 2026-04-20 02:52 | 35.39235 | -116.01584 | 21589 ft | 364 kts | 49° |
| 2026-04-20 02:53 | 35.40913 | -115.99271 | 21114 ft | 362 kts | 49° |
| 2026-04-20 02:53 | 35.42586 | -115.96973 | 20641 ft | 360 kts | 49° |
| 2026-04-20 02:53 | 35.44243 | -115.94685 | 20181 ft | 358 kts | 49° |
| 2026-04-20 02:53 | 35.45893 | -115.92410 | 19703 ft | 356 kts | 50° |
| 2026-04-20 02:54 | 35.47536 | -115.90142 | 19240 ft | 355 kts | 50° |
| 2026-04-20 02:54 | 35.49174 | -115.87878 | 18761 ft | 354 kts | 50° |
| 2026-04-20 02:54 | 35.50804 | -115.85629 | 18325 ft | 352 kts | 50° |
| 2026-04-20 02:54 | 35.52425 | -115.83382 | 17827 ft | 350 kts | 50° |
| 2026-04-20 02:55 | 35.54040 | -115.81153 | 17324 ft | 349 kts | 50° |
| 2026-04-20 02:55 | 35.55644 | -115.78925 | 16849 ft | 347 kts | 51° |
| 2026-04-20 02:55 | 35.57246 | -115.76711 | 16371 ft | 345 kts | 51° |
| 2026-04-20 02:55 | 35.58834 | -115.74503 | 15899 ft | 344 kts | 51° |
| 2026-04-20 02:56 | 35.60428 | -115.72314 | 15441 ft | 343 kts | 50° |
| 2026-04-20 02:56 | 35.62040 | -115.70167 | 14994 ft | 340 kts | 50° |
| 2026-04-20 02:56 | 35.63617 | -115.68053 | 14563 ft | 332 kts | 50° |
| 2026-04-20 02:56 | 35.65155 | -115.65973 | 14114 ft | 325 kts | 51° |
| 2026-04-20 02:57 | 35.66663 | -115.63927 | 13687 ft | 321 kts | 51° |
| 2026-04-20 02:57 | 35.68154 | -115.61910 | 13201 ft | 317 kts | 51° |
| 2026-04-20 02:57 | 35.69619 | -115.59934 | 13024 ft | 305 kts | 51° |
| 2026-04-20 02:57 | 35.71010 | -115.58050 | 13006 ft | 290 kts | 51° |
| 2026-04-20 02:58 | 35.72405 | -115.56165 | 13002 ft | 308 kts | 50° |
| 2026-04-20 02:58 | 35.74141 | -115.54603 | 12999 ft | 319 kts | 31° |
| 2026-04-20 02:58 | 35.76127 | -115.53247 | 13002 ft | 325 kts | 32° |
| 2026-04-20 02:58 | 35.78114 | -115.51883 | 13007 ft | 329 kts | 32° |
| 2026-04-20 02:59 | 35.80086 | -115.50500 | 13009 ft | 329 kts | 32° |
| 2026-04-20 02:59 | 35.82082 | -115.49096 | 13009 ft | 329 kts | 32° |
| 2026-04-20 02:59 | 35.84072 | -115.47693 | 13012 ft | 330 kts | 32° |
| 2026-04-20 02:59 | 35.86070 | -115.46298 | 13014 ft | 330 kts | 32° |
| 2026-04-20 03:00 | 35.88074 | -115.44890 | 13008 ft | 331 kts | 32° |
| 2026-04-20 03:00 | 35.90078 | -115.43485 | 13009 ft | 331 kts | 32° |
| 2026-04-20 03:00 | 35.92057 | -115.42090 | 12904 ft | 326 kts | 32° |
| 2026-04-20 03:00 | 35.94029 | -115.40724 | 12658 ft | 324 kts | 31° |
| 2026-04-20 03:01 | 35.95973 | -115.39367 | 12376 ft | 325 kts | 32° |
| 2026-04-20 03:01 | 35.97941 | -115.37994 | 12081 ft | 325 kts | 32° |
| 2026-04-20 03:01 | 35.99793 | -115.36436 | 11776 ft | 320 kts | 48° |
| 2026-04-20 03:01 | 36.00995 | -115.34179 | 11455 ft | 312 kts | 69° |
| 2026-04-20 03:02 | 36.01421 | -115.31611 | 11183 ft | 303 kts | 92° |
| 2026-04-20 03:02 | 36.01346 | -115.29025 | 10913 ft | 300 kts | 96° |
| 2026-04-20 03:02 | 36.01205 | -115.26457 | 10664 ft | 299 kts | 98° |
| 2026-04-20 03:02 | 36.01054 | -115.23917 | 10409 ft | 291 kts | 96° |
| 2026-04-20 03:03 | 36.00937 | -115.21474 | 10146 ft | 280 kts | 97° |
| 2026-04-20 03:03 | 36.00824 | -115.19104 | 9891 ft | 272 kts | 96° |
| 2026-04-20 03:03 | 36.00708 | -115.16797 | 9628 ft | 266 kts | 97° |
| 2026-04-20 03:03 | 36.00595 | -115.14539 | 9377 ft | 261 kts | 97° |
| 2026-04-20 03:04 | 36.00479 | -115.12317 | 9145 ft | 257 kts | 96° |
| 2026-04-20 03:04 | 36.00374 | -115.10169 | 8913 ft | 245 kts | 97° |
| 2026-04-20 03:04 | 36.00267 | -115.08089 | 8692 ft | 243 kts | 96° |
| 2026-04-20 03:04 | 36.00158 | -115.06001 | 8473 ft | 244 kts | 97° |
| 2026-04-20 03:05 | 36.00051 | -115.03900 | 8255 ft | 246 kts | 96° |
| 2026-04-20 03:05 | 35.99946 | -115.01786 | 8054 ft | 246 kts | 95° |
| 2026-04-20 03:05 | 36.00408 | -114.99796 | 8000 ft | 247 kts | 57° |
| 2026-04-20 03:05 | 36.01684 | -114.98368 | 7703 ft | 246 kts | 37° |
| 2026-04-20 03:06 | 36.03072 | -114.97183 | 7460 ft | 239 kts | 34° |
| 2026-04-20 03:06 | 36.04496 | -114.96172 | 7209 ft | 234 kts | 19° |
| 2026-04-20 03:06 | 36.06021 | -114.95669 | 7003 ft | 223 kts | 14° |
| 2026-04-20 03:06 | 36.07491 | -114.95215 | 6896 ft | 213 kts | 14° |
| 2026-04-20 03:07 | 36.08931 | -114.94757 | 6642 ft | 214 kts | 15° |
| 2026-04-20 03:07 | 36.10372 | -114.94292 | 6361 ft | 214 kts | 15° |
| 2026-04-20 03:07 | 36.11841 | -114.94195 | 6072 ft | 215 kts | 343° |
| 2026-04-20 03:07 | 36.13103 | -114.95129 | 5792 ft | 213 kts | 310° |
| 2026-04-20 03:08 | 36.13728 | -114.96735 | 5523 ft | 207 kts | 277° |
| 2026-04-20 03:08 | 36.13857 | -114.98496 | 5272 ft | 205 kts | 271° |
| 2026-04-20 03:08 | 36.13927 | -115.00191 | 5006 ft | 189 kts | 270° |
| 2026-04-20 03:08 | 36.13993 | -115.01770 | 4764 ft | 180 kts | 270° |
| 2026-04-20 03:09 | 36.14066 | -115.03287 | 4530 ft | 174 kts | 271° |
| 2026-04-20 03:09 | 36.14138 | -115.04764 | 4310 ft | 170 kts | 272° |
| 2026-04-20 03:09 | 36.14211 | -115.06208 | 4094 ft | 166 kts | 272° |
| 2026-04-20 03:09 | 36.14205 | -115.07514 | 3961 ft | 142 kts | 266° |
| 2026-04-20 03:10 | 36.14191 | -115.08692 | 3773 ft | 133 kts | 268° |
| 2026-04-20 03:10 | 36.14175 | -115.09827 | 3602 ft | 132 kts | 268° |
| 2026-04-20 03:10 | 36.14142 | -115.11004 | 3434 ft | 141 kts | 268° |
| 2026-04-20 03:10 | 36.13879 | -115.12185 | 3305 ft | 141 kts | 248° |
| 2026-04-20 03:11 | 36.13344 | -115.13163 | 3150 ft | 136 kts | 227° |
| 2026-04-20 03:11 | 36.12690 | -115.13952 | 2880 ft | 128 kts | 218° |
| 2026-04-20 03:11 | 36.11946 | -115.14529 | 2673 ft | 128 kts | 206° |
| 2026-04-20 03:11 | 36.11142 | -115.14983 | 2422 ft | 129 kts | 201° |
| 2026-04-20 03:12 | 36.10329 | -115.15445 | 2245 ft | 128 kts | 202° |
| 2026-04-20 03:12 | 36.09519 | -115.15904 | 2114 ft | 120 kts | 203° |
| 2026-04-20 03:12 | 36.08870 | -115.16273 | 2147 ft | 85 kts | 205° |
| 2026-04-20 03:12 | 36.08574 | -115.16444 | 2158 ft | 53 kts | 206° |